x

Sentry Shoal (46131) Wave Buoy

5:00 - Sat 29th Aug 2015 All times are PDT. -7 hours from GMT.

  • Sig Wave height 4.9ft
  • Peak Period 6s
  • Wind
    25mph, 31mph gusts
  • Sea Temp 54°f
  • Air Temp 59°f
  • Sea Pressure 999.2mb
  • Sentry Shoal
  • Sentry Shoal

More Historic Weather Station data

Upgrade to MSW Pro to gain access to the past 30 days of data for over 8000 Wavebouys and Weather Stations around the globe.

Join Pro

Comparision Forecast

View Surf forecast
   
sam. 08/29 5:00 5ft 6s 25 31 mph 999.2mb 54f 59f
4:00 5.5ft 6s 25 34 mph 998.2mb 55f 64f
3:00 5.5ft 5s 29 38 mph 996mb 55f 61f
2:00 4.5ft 4s 25 27 mph 994.1mb 55f 60f
1:00 4.5ft 6s 9 13 mph 992.4mb 56f 59f
12:00 5ft 6s 20 27 mph 993.1mb 57f 60f
11:00 5.5ft 5s 31 36 mph 993.6mb 58f 60f
10:00 5ft 5s 31 38 mph 993.1mb 59f 62f
9:00 3.5ft 4s 25 31 mph 992.9mb 60f 62f
8:00 1.3ft 2s 22 27 mph 992.9mb 60f 61f
7:00 0.7ft 2s 16 18 mph 994.7mb 60f 60f
6:00 0.7ft 2s 13 18 mph 996.6mb 60f 59f
5:00 0.7ft 2s 9 11 mph 998mb 60f 59f
4:00 1ft 3s 9 13 mph 999.6mb 60f 59f
3:00 0.7ft 3s 9 11 mph 1001mb 60f 59f
2:00 0.7ft 4s 7 9 mph 1002.7mb 60f 60f
1:00 1ft 3s 4 7 mph 1004.2mb 60f 60f
12:00 1ft 3s 9 13 mph 1005.4mb 59f 62f
ven. 08/28 11:00 1.3ft 4s 9
mph
1006.5mb 58f 61f
10:00 1.6ft 4s 9 11 mph 1007.5mb 58f 62f
9:00 1.6ft 4s 13 18 mph 1008.1mb 58f 61f
8:00 2.5ft 4s 13
mph
1008.3mb 58f 59f
7:00 2.5ft 4s 16
mph
1008.7mb 58f 61f
6:00 2.5ft 4s 20 22 mph 1009mb 58f 62f
5:00 3ft 4s 20 25 mph 1009.6mb 58f 62f
4:00 3ft 4s 20 22 mph 1010.3mb 58f 62f
3:00 3ft 4s 22 27 mph 1010.7mb 58f 62f
2:00 3ft 4s 18 22 mph 1011.3mb 60f 62f
1:00 3.5ft 4s 22 25 mph 1011.3mb 60f 63f
12:00 3ft 4s 22 27 mph 1011.6mb 61f 63f
11:00 3.5ft 4s 20 22 mph 1011.7mb 61f 63f
10:00 3.5ft 4s 22 27 mph 1011.3mb 61f 62f
9:00 3.5ft 4s 22 29 mph 1011.1mb 61f 62f
8:00 2.5ft 4s 25 29 mph 1010.8mb 61f 62f
7:00 2.5ft 3s 20 25 mph 1010.7mb 62f 62f
6:00 1.6ft 3s 13 16 mph 1011.1mb 62f 62f
5:00 1.3ft 3s 13 18 mph 1011.4mb 62f 62f
4:00 1.6ft 3s 11 16 mph 1011.8mb 62f 61f
3:00 1.3ft 3s 9 13 mph 1012.6mb 62f 62f
2:00 1ft 3s 9 11 mph 1012.9mb 62f 62f
1:00 0.7ft 3s 7 9 mph 1013mb 62f 64f
12:00 0.3ft 2s 4 7 mph 1012mb 62f 64f
jeu. 08/27 11:00 0.3ft 2s 2
mph
1012.5mb 63f 67f
10:00 0.3ft 2s 2
mph
1012.8mb 63f 66f
9:00 0.3ft 2s 7 9 mph 1012.7mb 64f 66f
8:00 0.3ft 2s 7
mph
1012.9mb 63f 66f
7:00 0.3ft 3s 7 9 mph 1013.5mb 64f 66f
6:00 0.3ft 3s 4 7 mph 1013.9mb 65f 67f
5:00 0.3ft 3s 4 7 mph 1014.6mb 66f 67f
4:00 0.3ft 3s 2
mph
1015.5mb 65f 66f
3:00 0.3ft 4s 4
mph
1016.3mb 65f 64f
2:00 0.3ft 2s 4
mph
1017.1mb 64f 64f
1:00 0.3ft 3s 4 7 mph 1017.6mb 63f 63f
12:00 0.3ft 2s 4
mph
1018mb 62f 63f
11:00 0.3ft 3s 2 4 mph 1018.2mb 62f 62f
10:00  -  3s  -  2 mph 1018.5mb 62f 61f
9:00 0.3ft 5s 2
mph
1018.5mb 61f 60f
8:00 0.3ft 3s 4
mph
1018.2mb 60f 60f
7:00  -  4s 4
mph
1017.9mb 60f 59f
6:00  -  4s 2
mph
1017.4mb 60f 60f
5:00  -  4s 4 7 mph 1016.8mb 61f 60f
4:00 0.3ft 4s 4 7 mph 1016.3mb 61f 60f
3:00  -  4s 7 9 mph 1016mb 61f 60f
2:00  -  4s 4 7 mph 1016mb 61f 61f
1:00 0.3ft 3s 4 7 mph 1015.9mb 62f 61f
12:00  -  4s  -  2 mph 1015.7mb 62f 62f
mer. 08/26 11:00  -  4s 4
mph
1015.4mb 62f 63f
10:00 0.3ft 6s 4
mph
1015mb 63f 65f
9:00 0.3ft 6s 2
mph
1015mb 63f 65f
8:00  -  3s 2 4 mph 1014.8mb 64f 63f
7:00  -  2s  -  2 mph 1014.5mb 64f 65f
6:00  -  3s 2 4 mph 1014.7mb 64f 64f
5:00 0.3ft 3s 4
mph
1014.5mb 64f 64f
4:00 0.3ft 2s 7
mph
1014.9mb 64f 64f
3:00 0.3ft 3s 4
mph
1015.6mb 65f 63f
2:00 0.3ft 3s 4
mph
1016mb 64f 63f
1:00 0.3ft 2s 4
mph
1016.4mb 64f 63f
12:00 0.3ft 3s 2 4 mph 1016.7mb 63f 63f
11:00  -  2s 2
mph
1016.8mb 62f 62f
10:00 0.3ft 3s 2
mph
1017mb 61f 61f
9:00 0.3ft 2s 4
mph
1017.1mb 61f 60f
8:00 0.3ft 2s 4 7 mph 1017mb 60f 58f
7:00 0.3ft 2s 7 9 mph 1016.5mb 60f 60f
6:00 0.3ft 2s 9
mph
1015.9mb 60f 60f
5:00 0.3ft 4s 7 9 mph 1015.7mb 60f 60f
4:00 0.3ft 4s 7 9 mph 1015.6mb 61f 60f
3:00 0.3ft 4s 9
mph
1015.4mb 61f 61f
2:00 0.3ft 2s 7
mph
1015.6mb 61f 61f